Quseir, Egypt

11:03 EET 24. Leden 2017 (GMT +0200)
Marsa Alam International | | Change Station

Výška 253 ft 25.55 °N, 34.58 °E | Updated 1 hour ago

Jasno
Jasno
70 °F
Pocit jako 70 °F
S
8
Vítr proměnlivý Vítr od SSZ

Dnes
Vysoké -- | Nízké -- °F
--% Možnost srážek
Včera
Vysoké -- | Nízké -- °F
Precip. -- inčů
Tlak 30.06 inčů
Viditelnost -9999.0 mílí
Zataženo
Rosný bod 50 °F
Vlhkost 49%
Dešťové srážky 0.00 inčů
Sněhová pokrývka Není k dispozici
6:30 AM 5:20 PM
Ubývající srpek, 13% visible
METAR HEMA 240800Z 33007KT CAVOK 21/10 Q1018 NOSIG
Tlak 30.06 inčů
Viditelnost -9999.0 mílí
Zataženo
Rosný bod 50 °F
Vlhkost 49%
Dešťové srážky 0.00 inčů
Sněhová pokrývka Není k dispozici
6:30 AM 5:20 PM
Ubývající srpek, 13% visible
METAR HEMA 240800Z 33007KT CAVOK 21/10 Q1018 NOSIG

Get Your Daily Forecast Email!

Thanks for signing up!

Be on the lookout for a verification email in your inbox.

You'll start receiving the daily forecast at 8 AM.

×

10-Day Weather Forecast

No radar image for this location.
×

Almanac

Astronomie

Jan. 24, 2017 Východ Západ
Skutečný čas
Občanský soumrak
Námořní soumrak
Astronomický soumrak
Měsíc
Délka denního světla
Délka dne
Tomorrow will be .
, % of the Moon is Illuminated

Dnešní extrémy

Nejvyšší hodnoty ve státě Nejnižší hodnoty ve státě

Community

WunderPhotos

Upload Photos

1,962,540 snímků staženo!

WunderBlog® & News

Nearby

Kvalita ovzduší

  Kvalita ovzduší Index kvality ovzduší Polutant
Not available.

Výška sněhu

Station Hloubka Nadmořská výška

Seizmická činnost

Město Distance Mag. Čas & datum
Minimální zobrazený rozsah je 2.5.

Pobřežní teplota vody

Lokalita Teplota

Stations

Poblíž povětrnostní stanice

Lokace stanice Tepl. Ochlazování větrem Rosný bod Vlhkost Vítr Precip. Výška Čas hlášení Typ